Aérodrome :
LOGIN :

S'inscrire | Disclaimer

   EN    FR    IT 

 










Légende :    VFR   VFR Marginal   IFR   IFR Intensif   IFR Très Intensif
Visi : 
Plafond : 
>= 8 km
>= 3000ft
5 à 8 km
1000 à 3000 ft
1500m à 5 km
500 à 1000 ft
800 à 1500m
200 à 500 ft
< 800m
< 200 ft
Symboles :   Orages  Brouillard  Fortes neiges  Fortes précipitations  Vent > 20 kt
SIGMETs :   Divers  Orages  Givrage  Turbulence  Onde Orograph.  Cendres Volcan.







- Altitude de l'aérodrome : 2945 ft
- Code IATA : RGS


LEBG - Burgos

DERNIER METAR :
  • 220000Z AUTO VRB01KT 9999 NCD 09/05 Q1019

METARs EXPIRÉS :
  • 212330Z AUTO 00000KT 9999 NCD 11/06 Q1019
  • 212300Z AUTO 04004KT CAVOK 10/06 Q1019
  • 212230Z AUTO VRB02KT 9999 NCD 10/06 Q1019
  • 212200Z AUTO VRB02KT 9999 NCD 11/06 Q1019
  • 212130Z AUTO 04003KT 9999 NCD 11/06 Q1019

TAF TAF LEBG
Valide du 21 à 18h jusqu'au 22 à 03h UTC


211700Z 2118/2203 16007KT CAVOK
BECMG 2118/2120 VRB04KT
Pas de NOTAMs connus pour ce terrain.
2 SIGMETs publiés pour la FIR Madrid (LECM) :
 
Orages noyés dans la masse
LECM SIGMET 7 VALID 220000/220400 LEVA
LECM MADRID FIR/UIR EMBD TS FCST WI N4002 W00440 - N3554 W00419 - N3556 W00735 - N4001 W00658 - N4002 W00440 TOP FL300 STNR NC=
Orages noyés dans la masse
LECM SIGMET 6 VALID 212000/212400 LEVA
LECM MADRID FIR/UIR EMBD TS FCST W OF LINE N4003 W00501 - N3552 W00426 TOP FL300 STNR NC=



MET'MAP, la Météo Aéronautique d'un coup d'oeil ! - Copyright ORBIFLY Décembre 2007 - Disclaimer

ORBIFLY MET'MAP TEAM :

Programmation & Développement : Alexandra Zaïnal
Conception & Développement : Baudouin d'Aumeries
Co-Programmation & Développement : Marc-Olivier Méhu
Soutien technique & logistique : Manuel Goepfert

Contact : metmap@orbifly.com




SOURCES & CREDITS :

   NOAA